Time;durP1;ratioP1;P1;durP2;ratioP2;P2;SDS_P1;SDS_P2;PMS_P1;PMS_P2;Temp;Humidity;BMP_temperature;BMP_pressure;BME280_temperature;BME280_humidity;BME280_pressure;Samples;Min_cycle;Max_cycle;Signal;HPM_P1;HPM_P2
2022/08/22 00:01:30;;;;;;;4.93;3.73;;;19.60;82.30;;;;;;5075698;28;20555;-56
2022/08/22 00:04:11;;;;;;;9.20;4.80;;;19.60;82.40;;;;;;5075506;28;20452;-56
2022/08/22 00:06:48;;;;;;;4.80;4.10;;;19.60;82.50;;;;;;5075682;28;20482;-56
2022/08/22 00:09:28;;;;;;;5.47;4.60;;;19.60;82.80;;;;;;5075624;28;20829;-56
2022/08/22 00:12:05;;;;;;;5.67;4.93;;;19.60;82.70;;;;;;5075064;28;20547;-56
2022/08/22 00:14:40;;;;;;;5.23;3.90;;;19.50;83.10;;;;;;5075631;28;20769;-56
2022/08/22 00:17:23;;;;;;;4.30;3.90;;;19.40;83.90;;;;;;5075262;28;20788;-57
2022/08/22 00:19:58;;;;;;;5.90;4.23;;;19.30;84.30;;;;;;5075214;28;20467;-56
2022/08/22 00:22:34;;;;;;;6.80;4.50;;;19.40;84.70;;;;;;5075378;28;20483;-56
2022/08/22 00:25:29;;;;;;;5.83;4.33;;;19.50;84.90;;;;;;5075275;28;20428;-57
2022/08/22 00:28:02;;;;;;;5.00;4.60;;;19.70;83.90;;;;;;5075178;28;20498;-57
2022/08/22 00:30:33;;;;;;;8.27;4.73;;;19.60;84.60;;;;;;5074819;28;21038;-56
2022/08/22 00:33:06;;;;;;;5.40;4.07;;;19.50;85.40;;;;;;5075014;28;20468;-56
2022/08/22 00:35:37;;;;;;;4.80;4.30;;;19.50;85.70;;;;;;5075285;28;20435;-57
2022/08/22 00:38:12;;;;;;;4.80;4.30;;;19.40;85.80;;;;;;5075178;28;20425;-56
2022/08/22 00:40:53;;;;;;;6.00;4.50;;;19.40;86.50;;;;;;5074504;28;20839;-56
2022/08/22 00:44:03;;;;;;;6.83;4.53;;;19.30;86.90;;;;;;5074413;28;20482;-56
2022/08/22 00:46:48;;;;;;;5.43;4.70;;;19.30;87.60;;;;;;5074958;28;20460;-56
2022/08/22 00:49:34;;;;;;;5.23;4.70;;;19.30;90.50;;;;;;5074649;28;20433;-56
2022/08/22 00:52:41;;;;;;;5.50;4.77;;;19.30;90.50;;;;;;5074656;28;20575;-56
2022/08/22 00:55:22;;;;;;;7.30;4.80;;;19.10;94.80;;;;;;5069286;28;20961;-56
2022/08/22 00:58:15;;;;;;;5.90;4.87;;;19.00;90.00;;;;;;5074557;28;20438;-56
2022/08/22 01:00:45;;;;;;;5.80;5.27;;;19.00;90.30;;;;;;5074491;28;20475;-56
2022/08/22 01:03:40;;;;;;;5.20;4.07;;;19.10;90.00;;;;;;5074449;28;20472;-56
2022/08/22 01:06:23;;;;;;;5.30;4.33;;;19.10;90.30;;;;;;5074129;28;20429;-56
2022/08/22 01:09:09;;;;;;;5.83;5.27;;;19.00;90.50;;;;;;5073861;28;20504;-56
2022/08/22 01:11:53;;;;;;;7.30;5.03;;;19.00;90.70;;;;;;5073892;28;20580;-56
2022/08/22 01:14:32;;;;;;;6.30;5.00;;;19.00;90.90;;;;;;5074246;28;20787;-56
2022/08/22 01:17:26;;;;;;;4.50;4.10;;;19.10;90.70;;;;;;5073968;28;20895;-56
2022/08/22 01:20:26;;;;;;;5.00;4.50;;;19.00;90.90;;;;;;5067971;28;20551;-56
2022/08/22 01:23:29;;;;;;;9.63;5.87;;;18.80;91.20;;;;;;5074159;28;20439;-56
2022/08/22 01:26:25;;;;;;;6.80;4.83;;;18.90;91.50;;;;;;5074364;28;20435;-56
2022/08/22 01:29:28;;;;;;;5.60;5.10;;;19.00;91.40;;;;;;5073488;28;20447;-56
2022/08/22 01:32:23;;;;;;;5.07;4.57;;;19.00;91.30;;;;;;5073544;28;21020;-56
2022/08/22 01:35:19;;;;;;;9.50;4.80;;;19.00;90.50;;;;;;5073963;28;20421;-57
2022/08/22 01:38:24;;;;;;;5.77;4.20;;;19.10;90.60;;;;;;5073750;28;20433;-56
2022/08/22 01:41:20;;;;;;;7.80;4.30;;;19.10;90.90;;;;;;5073532;28;20472;-56
2022/08/22 01:44:12;;;;;;;7.63;5.17;;;18.70;91.60;;;;;;5073354;28;20468;-56
2022/08/22 01:46:49;;;;;;;8.67;4.50;;;18.60;92.00;;;;;;5071006;28;20452;-56
2022/08/22 01:49:24;;;;;;;5.00;4.60;;;18.70;92.30;;;;;;5073742;28;20523;-56
2022/08/22 01:52:00;;;;;;;4.53;4.13;;;18.80;92.50;;;;;;5073228;28;20974;-56
2022/08/22 01:54:39;;;;;;;6.73;5.10;;;18.90;92.00;;;;;;5073492;28;20807;-56
2022/08/22 01:57:08;;;;;;;8.33;5.23;;;18.80;92.30;;;;;;5073777;28;20432;-56
2022/08/22 01:59:38;;;;;;;7.53;4.80;;;18.60;92.60;;;;;;5073478;28;20455;-56
2022/08/22 02:02:28;;;;;;;5.20;4.63;;;18.40;93.20;;;;;;5073322;28;20531;-56
2022/08/22 02:05:01;;;;;;;6.10;5.50;;;18.40;93.60;;;;;;5071064;28;20975;-56
2022/08/22 02:07:40;;;;;;;5.23;4.73;;;18.40;93.80;;;;;;5073494;28;20432;-56
2022/08/22 02:10:15;;;;;;;7.03;5.17;;;18.30;93.90;;;;;;5073414;28;20519;-56
2022/08/22 02:12:47;;;;;;;8.10;5.10;;;18.40;93.90;;;;;;5073170;28;20900;-56
2022/08/22 02:15:20;;;;;;;5.40;4.90;;;18.60;94.30;;;;;;5073901;28;20837;-57
2022/08/22 02:18:11;;;;;;;10.53;5.30;;;18.50;94.20;;;;;;5073137;28;20891;-57
2022/08/22 02:20:43;;;;;;;8.93;4.53;;;18.40;94.70;;;;;;5072462;28;20468;-57
2022/08/22 02:23:24;;;;;;;5.63;5.10;;;18.50;94.90;;;;;;5073257;28;20451;-56
2022/08/22 02:25:55;;;;;;;5.57;5.03;;;18.50;95.20;;;;;;5073326;28;20429;-56
2022/08/22 02:28:37;;;;;;;6.60;5.50;;;18.50;95.40;;;;;;5073036;28;20892;-56
2022/08/22 02:31:09;;;;;;;5.47;4.90;;;18.40;95.60;;;;;;5073356;28;20459;-56
2022/08/22 02:33:49;;;;;;;6.73;5.10;;;18.20;95.90;;;;;;5073329;28;20457;-56
2022/08/22 02:36:22;;;;;;;5.63;5.13;;;18.00;96.40;;;;;;5072916;28;20463;-57
2022/08/22 02:39:00;;;;;;;6.50;5.20;;;18.00;96.80;;;;;;5072905;28;20448;-56
2022/08/22 02:41:37;;;;;;;8.03;4.43;;;18.00;97.00;;;;;;5072789;28;20480;-56
2022/08/22 02:44:13;;;;;;;5.77;5.10;;;18.00;97.20;;;;;;5072600;28;20566;-56
2022/08/22 02:46:48;;;;;;;5.40;4.90;;;18.10;97.20;;;;;;5072981;28;20879;-56
2022/08/22 02:49:23;;;;;;;7.83;4.73;;;18.20;97.40;;;;;;5073231;28;20478;-56
2022/08/22 02:51:55;;;;;;;7.90;5.00;;;18.20;97.40;;;;;;5072599;28;20487;-57
2022/08/22 02:54:31;;;;;;;5.30;4.57;;;18.00;97.40;;;;;;5072756;28;20432;-56
2022/08/22 02:57:04;;;;;;;10.73;5.33;;;17.90;97.90;;;;;;5072997;28;20443;-56
2022/08/22 02:59:35;;;;;;;6.20;4.90;;;17.80;99.90;;;;;;5073011;28;20425;-56
2022/08/22 03:02:28;;;;;;;5.17;4.67;;;17.90;99.90;;;;;;5073046;28;20460;-56
2022/08/22 03:04:59;;;;;;;6.10;4.83;;;17.90;99.90;;;;;;5072715;28;20452;-56
2022/08/22 03:07:36;;;;;;;6.90;6.30;;;17.90;99.90;;;;;;5072608;28;20513;-56
2022/08/22 03:10:16;;;;;;;6.40;5.50;;;18.10;99.90;;;;;;5072495;28;20435;-56
2022/08/22 03:12:54;;;;;;;5.50;4.77;;;18.20;99.90;;;;;;5072753;28;20467;-56
2022/08/22 03:15:27;;;;;;;6.60;5.83;;;18.30;99.90;;;;;;5072529;28;20438;-57
2022/08/22 03:18:02;;;;;;;9.07;5.60;;;18.30;99.90;;;;;;5072803;28;20523;-57
2022/08/22 03:20:45;;;;;;;9.03;5.10;;;18.30;99.90;;;;;;5072532;28;20468;-56
2022/08/22 03:23:22;;;;;;;5.80;5.17;;;18.20;99.90;;;;;;5072641;28;20519;-56
2022/08/22 03:25:59;;;;;;;6.80;5.37;;;18.20;99.90;;;;;;5072905;28;20515;-56
2022/08/22 03:28:32;;;;;;;8.50;5.90;;;18.20;99.90;;;;;;5072333;28;20432;-56
2022/08/22 03:31:07;;;;;;;6.30;5.57;;;18.10;99.90;;;;;;5072682;28;20468;-56
2022/08/22 03:33:35;;;;;;;5.50;5.00;;;17.70;99.90;;;;;;5075900;28;20467;-56
2022/08/22 03:36:09;;;;;;;7.43;5.50;;;17.50;99.90;;;;;;5076325;28;20448;-57
2022/08/22 03:39:09;;;;;;;9.90;6.40;;;17.40;99.90;;;;;;5075929;28;20519;-56
2022/08/22 03:42:07;;;;;;;7.50;5.00;;;17.60;99.90;;;;;;5075862;28;20482;-57
2022/08/22 03:45:21;;;;;;;9.83;5.30;;;17.60;99.90;;;;;;5075584;28;20479;-57
2022/08/22 03:48:20;;;;;;;7.00;5.03;;;17.50;99.90;;;;;;5075697;28;20444;-56
2022/08/22 03:51:19;;;;;;;7.10;6.40;;;17.40;99.90;;;;;;5075726;28;20449;-56
2022/08/22 03:54:09;;;;;;;7.30;5.80;;;17.60;99.90;;;;;;5075452;28;20484;-56
2022/08/22 03:56:58;;;;;;;6.57;5.40;;;17.40;99.90;;;;;;5075513;28;20543;-57
2022/08/22 04:00:10;;;;;;;9.57;5.90;;;17.50;99.90;;;;;;5075365;28;20437;-57
2022/08/22 04:03:07;;;;;;;8.13;5.63;;;17.50;99.90;;;;;;5072970;28;20444;-56
2022/08/22 04:06:02;;;;;;;5.70;5.10;;;17.60;99.90;;;;;;5075659;28;20448;-56
2022/08/22 04:09:10;;;;;;;8.87;6.70;;;17.60;99.90;;;;;;5075277;28;21015;-56
2022/08/22 04:12:11;;;;;;;7.70;5.73;;;17.70;99.90;;;;;;5067512;28;20958;-57
2022/08/22 04:15:25;;;;;;;6.27;5.40;;;17.70;99.90;;;;;;5060223;28;20452;-56
2022/08/22 04:18:07;;;;;;;7.17;5.80;;;17.80;99.90;;;;;;5043500;28;20539;-56
2022/08/22 04:20:56;;;;;;;7.07;5.90;;;17.80;99.90;;;;;;5075304;28;20559;-57
2022/08/22 04:23:39;;;;;;;7.40;5.70;;;17.70;99.90;;;;;;5075233;28;20421;-56
2022/08/22 04:26:09;;;;;;;6.17;5.40;;;17.70;99.90;;;;;;5074995;28;20439;-56
2022/08/22 04:28:41;;;;;;;7.63;5.80;;;17.60;99.90;;;;;;5075183;28;20539;-56
2022/08/22 04:31:11;;;;;;;12.27;6.00;;;17.50;99.90;;;;;;5075191;28;20457;-57
2022/08/22 04:33:46;;;;;;;7.90;5.10;;;17.50;99.90;;;;;;5075382;28;20484;-56
2022/08/22 04:36:20;;;;;;;6.77;6.17;;;17.40;99.90;;;;;;5075127;28;20424;-57
2022/08/22 04:38:51;;;;;;;6.20;5.60;;;17.40;99.90;;;;;;5075079;28;20523;-56
2022/08/22 04:41:23;;;;;;;6.30;5.67;;;17.30;99.90;;;;;;5074495;28;20530;-56
2022/08/22 04:43:55;;;;;;;7.67;5.40;;;17.30;99.90;;;;;;5073578;28;20480;-56
2022/08/22 04:46:27;;;;;;;6.37;5.73;;;17.10;99.90;;;;;;5074421;28;20896;-56
2022/08/22 04:49:01;;;;;;;6.83;6.13;;;17.10;99.90;;;;;;5074402;28;20983;-56
2022/08/22 04:51:37;;;;;;;7.90;6.43;;;17.10;99.90;;;;;;5074222;28;20551;-56
2022/08/22 04:54:26;;;;;;;7.20;5.50;;;17.20;99.90;;;;;;5074095;28;20966;-58
2022/08/22 04:57:11;;;;;;;8.80;6.20;;;17.50;99.90;;;;;;5074449;28;20420;-57
2022/08/22 04:59:38;;;;;;;7.33;5.77;;;17.60;99.90;;;;;;5074587;28;20427;-57
2022/08/22 05:02:09;;;;;;;6.47;5.80;;;17.60;99.90;;;;;;5074201;28;20551;-58
2022/08/22 05:04:41;;;;;;;6.80;6.13;;;17.60;99.90;;;;;;5074184;28;20982;-57
2022/08/22 05:07:14;;;;;;;7.50;6.90;;;17.60;99.90;;;;;;5074036;28;20433;-57
2022/08/22 05:09:45;;;;;;;7.10;5.50;;;17.50;99.90;;;;;;5074170;28;20519;-57
2022/08/22 05:12:18;;;;;;;12.20;6.67;;;17.60;99.90;;;;;;5074505;28;20557;-57
2022/08/22 05:14:50;;;;;;;9.77;6.60;;;17.60;99.90;;;;;;5074122;28;20532;-58
2022/08/22 05:17:26;;;;;;;8.63;7.20;;;17.60;99.90;;;;;;5073953;28;20525;-57
2022/08/22 05:20:00;;;;;;;7.30;6.60;;;17.70;99.90;;;;;;5073935;28;20468;-57
2022/08/22 05:22:30;;;;;;;9.17;6.20;;;17.70;99.90;;;;;;5073914;28;20471;-56
2022/08/22 05:25:01;;;;;;;8.13;6.20;;;17.60;99.90;;;;;;5073846;28;20429;-56
2022/08/22 05:27:33;;;;;;;9.57;6.10;;;17.70;99.90;;;;;;5073980;28;20490;-57
2022/08/22 05:30:10;;;;;;;11.20;6.83;;;17.60;99.90;;;;;;5073396;28;20464;-57
2022/08/22 05:32:47;;;;;;;6.27;5.67;;;17.70;99.90;;;;;;5073565;28;20463;-56
2022/08/22 05:35:18;;;;;;;7.63;6.67;;;17.90;99.90;;;;;;5074117;28;20868;-57
2022/08/22 05:37:52;;;;;;;8.17;6.17;;;18.00;99.90;;;;;;5073479;28;20920;-56
2022/08/22 05:40:23;;;;;;;9.27;6.40;;;18.00;99.90;;;;;;5073265;28;20472;-56
2022/08/22 05:42:51;;;;;;;7.63;5.70;;;18.00;99.90;;;;;;5073357;28;20815;-56
2022/08/22 05:45:19;;;;;;;8.83;6.40;;;18.10;99.90;;;;;;5073854;28;20436;-56
2022/08/22 05:47:49;;;;;;;8.40;6.30;;;18.10;99.90;;;;;;5073493;28;20531;-56
2022/08/22 05:50:22;;;;;;;7.63;6.10;;;18.10;99.90;;;;;;5073545;28;20444;-56
2022/08/22 05:53:04;;;;;;;10.03;6.00;;;18.00;99.90;;;;;;5073092;28;20514;-56
2022/08/22 05:55:37;;;;;;;10.77;7.20;;;18.10;99.90;;;;;;5073729;28;20483;-57
2022/08/22 05:58:28;;;;;;;9.23;6.83;;;18.10;99.90;;;;;;5073403;28;20904;-56
2022/08/22 06:01:02;;;;;;;9.27;7.10;;;18.30;99.90;;;;;;5073098;28;20468;-56
2022/08/22 06:03:36;;;;;;;12.03;7.00;;;18.40;99.90;;;;;;5073525;28;20425;-57
2022/08/22 06:06:10;;;;;;;11.97;6.67;;;18.40;99.90;;;;;;5073291;28;20408;-57
2022/08/22 06:08:42;;;;;;;12.20;6.40;;;18.40;99.90;;;;;;5073559;28;20478;-56
2022/08/22 06:11:17;;;;;;;9.17;6.87;;;18.50;99.90;;;;;;5073186;28;20554;-56
2022/08/22 06:13:50;;;;;;;10.40;6.73;;;18.50;99.90;;;;;;5072886;28;20966;-56
2022/08/22 06:16:22;;;;;;;9.17;6.53;;;18.60;99.90;;;;;;5073348;28;20895;-57
2022/08/22 06:18:51;;;;;;;16.47;7.13;;;18.70;99.90;;;;;;5073349;28;20433;-57
2022/08/22 06:21:26;;;;;;;8.13;6.93;;;18.70;99.90;;;;;;5073224;28;20869;-57
2022/08/22 06:23:57;;;;;;;7.80;6.30;;;18.80;99.90;;;;;;5073442;28;20829;-57
2022/08/22 06:26:27;;;;;;;9.27;6.90;;;18.80;99.90;;;;;;5073304;28;20421;-57
2022/08/22 06:28:59;;;;;;;7.70;6.87;;;18.80;99.90;;;;;;5072824;28;20432;-57
2022/08/22 06:31:36;;;;;;;9.50;7.17;;;18.70;99.90;;;;;;5072712;28;20504;-57
2022/08/22 06:34:09;;;;;;;8.20;6.67;;;18.80;99.90;;;;;;5072805;28;20464;-57
2022/08/22 06:36:40;;;;;;;10.67;8.17;;;18.80;99.90;;;;;;5073199;28;20435;-57
2022/08/22 06:39:16;;;;;;;10.43;7.00;;;18.70;99.90;;;;;;5072907;28;20456;-56
2022/08/22 06:41:49;;;;;;;8.60;6.50;;;18.90;99.90;;;;;;5073081;28;20531;-57
2022/08/22 06:44:20;;;;;;;12.63;6.87;;;19.10;99.90;;;;;;5072322;28;20534;-56
2022/08/22 06:46:50;;;;;;;15.73;6.83;;;19.20;99.90;;;;;;5073097;28;20440;-56
2022/08/22 06:49:19;;;;;;;8.23;6.97;;;19.20;99.90;;;;;;5072792;28;20444;-56
2022/08/22 06:51:49;;;;;;;7.50;6.20;;;19.20;99.90;;;;;;5072817;28;20555;-56
2022/08/22 06:54:19;;;;;;;10.93;5.70;;;19.40;99.90;;;;;;5072773;28;20483;-56
2022/08/22 06:56:49;;;;;;;6.30;5.70;;;19.60;99.90;;;;;;5072708;28;20817;-57
2022/08/22 06:59:19;;;;;;;9.00;7.30;;;20.10;99.90;;;;;;5072402;28;20448;-57
2022/08/22 07:01:51;;;;;;;11.77;8.00;;;20.00;99.90;;;;;;5072747;28;20899;-57
2022/08/22 07:04:22;;;;;;;8.27;7.20;;;20.00;99.90;;;;;;5072671;28;20899;-57
2022/08/22 07:06:51;;;;;;;8.13;7.13;;;20.00;99.90;;;;;;5074072;28;20456;-57
2022/08/22 07:09:24;;;;;;;9.33;7.27;;;20.00;99.90;;;;;;5076635;28;20523;-56
2022/08/22 07:11:52;;;;;;;9.90;6.30;;;20.00;99.90;;;;;;5076608;28;20535;-56
2022/08/22 07:14:27;;;;;;;9.27;6.70;;;20.10;99.90;;;;;;5076303;28;20484;-56
2022/08/22 07:16:57;;;;;;;7.93;6.80;;;20.00;99.90;;;;;;5076617;28;20514;-56
2022/08/22 07:19:27;;;;;;;13.33;7.00;;;20.00;99.90;;;;;;5076218;28;20907;-57
2022/08/22 07:21:56;;;;;;;7.53;6.00;;;;;;;;;;5075997;28;20502;-57
2022/08/22 07:24:27;;;;;;;7.10;6.37;;;20.50;99.90;;;;;;5076189;28;20448;-56
2022/08/22 07:27:05;;;;;;;8.77;5.70;;;20.60;99.90;;;;;;5076570;28;20777;-56
2022/08/22 07:29:40;;;;;;;7.20;6.20;;;20.80;99.90;;;;;;5075877;28;20535;-57
2022/08/22 07:32:16;;;;;;;6.90;5.30;;;20.90;99.90;;;;;;5076114;28;20475;-57
2022/08/22 07:35:00;;;;;;;5.97;5.37;;;21.00;99.90;;;;;;5075800;28;20499;-58
2022/08/22 07:37:41;;;;;;;6.80;4.97;;;21.10;99.90;;;;;;5076039;28;20578;-58
2022/08/22 07:40:18;;;;;;;5.80;5.23;;;21.30;99.90;;;;;;5075814;28;20447;-58
2022/08/22 07:42:53;;;;;;;9.40;4.80;;;21.30;99.80;;;;;;5075523;28;20523;-57
2022/08/22 07:45:32;;;;;;;6.37;4.13;;;21.30;99.40;;;;;;5075642;28;20447;-57
2022/08/22 07:48:18;;;;;;;7.73;4.37;;;21.50;99.10;;;;;;5076043;28;20428;-57
2022/08/22 07:50:59;;;;;;;7.00;3.83;;;21.50;98.60;;;;;;5075906;28;20464;-57
2022/08/22 07:53:36;;;;;;;5.40;4.77;;;21.60;99.10;;;;;;5075340;28;20467;-57
2022/08/22 07:56:06;;;;;;;5.03;4.60;;;21.70;98.80;;;;;;5075336;28;20774;-57
2022/08/22 07:58:39;;;;;;;11.40;4.70;;;21.80;98.50;;;;;;5075416;28;20445;-58
2022/08/22 08:01:09;;;;;;;7.23;4.57;;;21.80;98.10;;;;;;5075516;28;20467;-58
2022/08/22 08:03:38;;;;;;;8.00;5.40;;;21.90;98.00;;;;;;5075604;28;20417;-57
2022/08/22 08:06:05;;;;;;;4.40;3.80;;;22.00;97.70;;;;;;5075271;28;20452;-57
2022/08/22 08:08:40;;;;;;;5.67;5.10;;;22.20;97.60;;;;;;5075364;28;20440;-56
2022/08/22 08:11:09;;;;;;;5.43;4.93;;;22.20;97.20;;;;;;5075136;28;20985;-57
2022/08/22 08:13:40;;;;;;;8.90;5.03;;;22.20;97.40;;;;;;5074784;28;20990;-57
2022/08/22 08:16:15;;;;;;;5.20;4.70;;;22.40;97.00;;;;;;5075327;28;20881;-57
2022/08/22 08:18:47;;;;;;;5.30;4.80;;;22.60;97.00;;;;;;5074153;28;20521;-57
2022/08/22 08:21:27;;;;;;;7.67;5.50;;;22.70;97.40;;;;;;5075478;28;20547;-57
2022/08/22 08:23:58;;;;;;;8.57;3.97;;;23.50;96.50;;;;;;5075337;28;20425;-57
2022/08/22 08:26:33;;;;;;;5.00;4.50;;;24.50;95.50;;;;;;5074807;28;20912;-57
2022/08/22 08:29:00;;;;;;;15.50;5.33;;;25.30;93.60;;;;;;5075109;28;20468;-57
2022/08/22 08:31:34;;;;;;;5.80;4.30;;;25.80;92.70;;;;;;5074596;28;20460;-57
2022/08/22 08:34:06;;;;;;;4.57;4.17;;;26.20;91.40;;;;;;5075179;28;20475;-57
2022/08/22 08:36:45;;;;;;;6.03;4.30;;;27.00;90.50;;;;;;5074690;28;20428;-57
2022/08/22 08:39:26;;;;;;;5.83;4.57;;;27.80;87.80;;;;;;5074528;28;20443;-57
2022/08/22 08:43:25;;;;;;;4.80;4.40;;;27.90;83.30;;;;;;5074749;28;20460;-57
2022/08/22 08:46:06;;;;;;;5.00;4.13;;;28.50;83.10;;;;;;5074039;28;20440;-57
2022/08/22 08:48:58;;;;;;;6.60;4.70;;;29.10;80.70;;;;;;5012775;28;20447;-57
2022/08/22 08:51:54;;;;;;;4.83;3.70;;;28.70;79.40;;;;;;5074584;28;20476;-57
2022/08/22 08:54:50;;;;;;;4.97;4.47;;;28.70;79.70;;;;;;5074186;28;20479;-57
2022/08/22 08:57:24;;;;;;;5.63;4.87;;;28.70;79.10;;;;;;5074658;28;20429;-57
2022/08/22 08:59:59;;;;;;;6.43;5.23;;;29.10;78.40;;;;;;5074162;28;20433;-58
2022/08/22 09:02:46;;;;;;;7.40;5.30;;;28.70;79.10;;;;;;5074225;28;20462;-57
2022/08/22 09:05:50;;;;;;;5.13;4.60;;;28.70;79.00;;;;;;5073945;28;20965;-57
2022/08/22 09:08:52;;;;;;;8.63;5.43;;;29.00;77.60;;;;;;5074367;28;20440;-57
2022/08/22 09:11:50;;;;;;;5.67;5.17;;;29.50;77.20;;;;;;5074100;28;20992;-57
2022/08/22 09:14:32;;;;;;;4.63;4.13;;;29.40;77.90;;;;;;5074104;28;20480;-57
2022/08/22 09:17:25;;;;;;;5.30;4.90;;;29.60;75.90;;;;;;5074315;28;20452;-57
2022/08/22 09:20:26;;;;;;;5.83;4.80;;;29.50;75.00;;;;;;5073833;28;20531;-57
2022/08/22 09:23:24;;;;;;;4.83;4.33;;;;;;;;;;5063541;28;20942;-57
2022/08/22 09:25:54;;;;;;;6.40;4.20;;;30.00;73.40;;;;;;5073975;28;20775;-57
2022/08/22 09:28:29;;;;;;;5.80;4.67;;;30.20;71.90;;;;;;5073637;28;20956;-57
2022/08/22 09:31:23;;;;;;;5.03;4.63;;;30.70;72.30;;;;;;5073508;28;20509;-57
2022/08/22 09:33:55;;;;;;;5.40;4.27;;;30.90;71.10;;;;;;5073381;28;20570;-56
2022/08/22 09:36:29;;;;;;;5.30;4.80;;;31.10;70.90;;;;;;5073674;28;20413;-57
2022/08/22 09:39:02;;;;;;;5.23;4.73;;;31.50;70.40;;;;;;5073800;28;20424;-56
2022/08/22 09:41:40;;;;;;;5.43;4.50;;;31.90;69.00;;;;;;5073537;28;20563;-57
2022/08/22 09:44:20;;;;;;;4.50;4.10;;;31.70;67.90;;;;;;5073069;28;20476;-56
2022/08/22 09:47:01;;;;;;;5.83;4.40;;;32.10;67.30;;;;;;5073322;28;20435;-56
2022/08/22 09:49:43;;;;;;;7.03;4.40;;;32.10;66.30;;;;;;5073711;28;20482;-57
2022/08/22 09:52:29;;;;;;;4.33;4.03;;;31.60;66.20;;;;;;5073499;28;20529;-57
2022/08/22 09:55:04;;;;;;;4.77;4.37;;;31.50;65.20;;;;;;5072923;28;20556;-56
2022/08/22 09:57:39;;;;;;;4.83;4.23;;;31.50;64.30;;;;;;5073597;28;20435;-57
2022/08/22 10:00:18;;;;;;;4.60;4.20;;;31.60;64.00;;;;;;5073410;28;20427;-56
2022/08/22 10:02:58;;;;;;;5.93;4.60;;;31.80;64.00;;;;;;5073535;28;20795;-57
2022/08/22 10:05:30;;;;;;;4.90;4.50;;;32.10;63.00;;;;;;5073047;28;20914;-56
2022/08/22 10:08:13;;;;;;;5.07;4.30;;;32.30;63.40;;;;;;5073145;28;20527;-56
2022/08/22 10:10:57;;;;;;;4.37;4.00;;;32.20;63.20;;;;;;5073132;28;20483;-57
2022/08/22 10:13:36;;;;;;;4.83;4.17;;;31.80;61.20;;;;;;5073092;28;20450;-57
2022/08/22 10:16:20;;;;;;;5.60;4.30;;;32.10;61.50;;;;;;5073088;28;20554;-58
2022/08/22 10:18:51;;;;;;;6.50;4.83;;;32.40;61.20;;;;;;5072920;28;20438;-57
2022/08/22 10:21:28;;;;;;;5.03;4.63;;;32.30;59.50;;;;;;5073315;28;20818;-57
2022/08/22 10:24:01;;;;;;;4.70;4.30;;;32.20;59.60;;;;;;5073153;28;20419;-56
2022/08/22 10:26:34;;;;;;;4.63;4.23;;;31.60;59.50;;;;;;5073211;28;20520;-57
2022/08/22 10:29:08;;;;;;;4.73;4.33;;;32.10;59.30;;;;;;5073215;28;20520;-56
2022/08/22 10:31:44;;;;;;;5.43;4.67;;;32.20;58.40;;;;;;5072727;28;20973;-56
2022/08/22 10:34:16;;;;;;;6.07;4.47;;;32.30;57.50;;;;;;5073142;28;20499;-57
2022/08/22 10:36:54;;;;;;;6.23;4.27;;;32.80;56.60;;;;;;5072784;28;20532;-56
2022/08/22 10:39:25;;;;;;;4.30;3.67;;;32.80;56.20;;;;;;5072790;28;20511;-56
2022/08/22 10:42:15;;;;;;;5.13;3.50;;;32.30;54.90;;;;;;5074409;28;20472;-57
2022/08/22 10:44:53;;;;;;;4.30;3.63;;;32.30;55.30;;;;;;5076962;28;20482;-56
2022/08/22 10:47:26;;;;;;;5.50;3.73;;;32.20;55.60;;;;;;5077183;28;20460;-56
2022/08/22 10:49:58;;;;;;;3.50;3.20;;;32.90;55.10;;;;;;5076610;28;20907;-56
2022/08/22 10:52:33;;;;;;;4.60;4.20;;;33.40;53.20;;;;;;5077165;28;20461;-57
2022/08/22 10:55:06;;;;;;;4.87;3.90;;;33.70;54.20;;;;;;5076500;28;20467;-57
2022/08/22 10:57:54;;;;;;;6.33;4.27;;;33.90;53.80;;;;;;5076660;28;20894;-56
2022/08/22 11:00:43;;;;;;;3.40;3.20;;;34.00;53.30;;;;;;5076432;28;20555;-56
2022/08/22 11:03:16;;;;;;;5.10;4.03;;;33.80;53.10;;;;;;5076647;28;20454;-57
2022/08/22 11:05:44;;;;;;;4.37;3.83;;;34.00;52.50;;;;;;5076315;28;20933;-56
2022/08/22 11:08:47;;;;;;;5.23;3.80;;;33.90;52.00;;;;;;5076572;28;20428;-57
2022/08/22 11:11:24;;;;;;;8.60;4.10;;;33.30;51.80;;;;;;5076498;28;20813;-57
2022/08/22 11:14:06;;;;;;;4.47;4.07;;;32.50;50.60;;;;;;5076298;28;20454;-57
2022/08/22 11:16:45;;;;;;;4.33;3.80;;;31.50;51.50;;;;;;5076102;28;20433;-57
2022/08/22 11:19:22;;;;;;;6.57;3.60;;;30.70;54.40;;;;;;5076558;28;20795;-56
2022/08/22 11:21:55;;;;;;;4.60;3.63;;;;;;;;;;5076371;28;20471;-56
2022/08/22 11:25:04;;;;;;;5.90;4.30;;;29.90;52.40;;;;;;5076433;28;20471;-57
2022/08/22 11:27:39;;;;;;;4.67;4.30;;;29.80;57.20;;;;;;5059507;28;20448;-56
2022/08/22 11:30:12;;;;;;;6.40;4.07;;;30.20;57.30;;;;;;5075921;28;20899;-56
2022/08/22 11:32:48;;;;;;;5.47;4.70;;;30.00;57.00;;;;;;5076356;28;20428;-56
2022/08/22 11:35:22;;;;;;;4.73;4.33;;;29.50;56.80;;;;;;5075764;28;20468;-57
2022/08/22 11:37:59;;;;;;;4.90;4.50;;;29.00;58.00;;;;;;5075832;28;20432;-57
2022/08/22 11:40:38;;;;;;;4.30;3.90;;;28.90;57.60;;;;;;5075919;28;20464;-56
2022/08/22 11:43:25;;;;;;;4.43;3.80;;;28.60;56.70;;;;;;5075540;28;20969;-56
2022/08/22 11:45:57;;;;;;;4.90;4.10;;;29.00;57.00;;;;;;5075778;28;20768;-56
2022/08/22 11:48:28;;;;;;;5.27;3.87;;;30.30;55.40;;;;;;5075798;28;20974;-56
2022/08/22 11:51:06;;;;;;;4.50;3.83;;;30.30;53.50;;;;;;5075761;28;20467;-56
2022/08/22 11:53:41;;;;;;;4.30;3.43;;;29.60;52.70;;;;;;5075350;28;20423;-56
2022/08/22 11:56:17;;;;;;;4.27;3.60;;;29.40;52.00;;;;;;5075513;28;20806;-56
2022/08/22 11:58:56;;;;;;;3.93;3.53;;;29.70;53.30;;;;;;5075531;28;20424;-56
2022/08/22 12:01:30;;;;;;;4.20;3.80;;;29.70;52.60;;;;;;5075400;28;20483;-56
2022/08/22 12:04:10;;;;;;;5.00;4.00;;;30.30;53.10;;;;;;5075613;28;20446;-57
2022/08/22 12:06:54;;;;;;;6.27;4.20;;;31.10;52.50;;;;;;5075760;28;20412;-56
2022/08/22 12:09:34;;;;;;;4.13;3.70;;;31.50;53.30;;;;;;5075783;28;20512;-56
2022/08/22 12:12:25;;;;;;;4.50;3.73;;;31.40;53.30;;;;;;5075226;28;21064;-57
2022/08/22 12:15:01;;;;;;;5.80;5.10;;;31.90;53.00;;;;;;5071783;28;20527;-57
2022/08/22 12:18:13;;;;;;;4.57;4.03;;;31.60;52.90;;;;;;5075210;28;20432;-57
2022/08/22 12:21:25;;;;;;;5.10;4.00;;;32.30;53.60;;;;;;5064626;28;20975;-57
2022/08/22 12:24:30;;;;;;;4.60;4.17;;;32.60;53.60;;;;;;5046875;28;20526;-58
2022/08/22 12:27:15;;;;;;;3.97;3.67;;;32.40;52.70;;;;;;5075439;28;20504;-56
2022/08/22 12:29:54;;;;;;;5.57;3.90;;;32.40;52.90;;;;;;5075245;28;20793;-57
2022/08/22 12:32:47;;;;;;;4.73;4.33;;;32.50;53.20;;;;;;5075186;28;20492;-57
2022/08/22 12:35:32;;;;;;;4.40;3.60;;;32.90;52.50;;;;;;5075199;28;20984;-56
2022/08/22 12:38:08;;;;;;;4.67;4.20;;;32.60;52.30;;;;;;5075189;28;20428;-58
2022/08/22 12:40:48;;;;;;;6.53;3.70;;;32.80;53.20;;;;;;5074988;28;20472;-57
2022/08/22 12:43:39;;;;;;;6.47;4.23;;;32.90;52.70;;;;;;5073210;28;20479;-57
2022/08/22 12:46:18;;;;;;;4.77;4.37;;;33.10;51.70;;;;;;5074596;28;20432;-57
2022/08/22 12:49:15;;;;;;;5.30;4.00;;;32.90;52.30;;;;;;5074930;28;20429;-56
2022/08/22 12:51:58;;;;;;;4.93;4.53;;;32.30;52.40;;;;;;5066211;28;20508;-56
2022/08/22 12:55:00;;;;;;;4.83;4.43;;;32.10;52.10;;;;;;5074344;28;20462;-56
2022/08/22 12:57:39;;;;;;;4.73;4.27;;;32.40;52.00;;;;;;5061444;28;20534;-56
2022/08/22 13:00:18;;;;;;;5.17;4.33;;;33.00;51.60;;;;;;5074326;28;20409;-56
2022/08/22 13:02:46;;;;;;;4.70;3.83;;;32.30;52.80;;;;;;5074083;28;20440;-56
2022/08/22 13:05:19;;;;;;;5.47;3.97;;;32.20;51.80;;;;;;5073738;28;20543;-57
2022/08/22 13:07:53;;;;;;;6.93;4.27;;;32.60;52.20;;;;;;5074287;28;20420;-57
2022/08/22 13:10:45;;;;;;;4.93;4.53;;;32.60;51.40;;;;;;5074222;28;20547;-56
2022/08/22 13:13:26;;;;;;;6.73;3.53;;;32.40;51.70;;;;;;5059540;28;20462;-56
2022/08/22 13:15:59;;;;;;;4.00;3.60;;;32.20;52.10;;;;;;5074120;28;20476;-56
2022/08/22 13:18:32;;;;;;;4.40;3.73;;;32.00;52.00;;;;;;5074084;28;20432;-57
2022/08/22 13:21:04;;;;;;;5.83;3.57;;;32.60;51.70;;;;;;5074043;28;20460;-56
2022/08/22 13:23:33;;;;;;;5.87;3.77;;;32.30;51.40;;;;;;5074175;28;20784;-56
2022/08/22 13:26:07;;;;;;;4.10;3.80;;;32.00;51.20;;;;;;5073872;28;20444;-58
2022/08/22 13:28:41;;;;;;;3.60;3.27;;;31.70;51.10;;;;;;5074060;28;20443;-56
2022/08/22 13:31:09;;;;;;;6.17;3.73;;;32.20;51.50;;;;;;5073976;28;20464;-56
2022/08/22 13:33:45;;;;;;;3.97;3.67;;;32.30;51.40;;;;;;5073865;28;20535;-56
2022/08/22 13:36:16;;;;;;;4.20;3.90;;;32.20;50.90;;;;;;5073519;28;20997;-56
2022/08/22 13:38:51;;;;;;;4.20;3.80;;;32.20;51.30;;;;;;5072887;28;20435;-57
2022/08/22 13:41:23;;;;;;;3.80;3.47;;;31.90;51.40;;;;;;5073241;28;20479;-57
2022/08/22 13:44:17;;;;;;;4.20;3.90;;;31.60;50.80;;;;;;5073278;28;20480;-56
2022/08/22 13:46:46;;;;;;;4.30;3.90;;;31.80;51.60;;;;;;5073674;28;20455;-57
2022/08/22 13:49:18;;;;;;;4.27;3.87;;;31.60;52.00;;;;;;5073429;28;20934;-56
2022/08/22 13:51:50;;;;;;;7.93;4.23;;;30.90;52.30;;;;;;5073502;28;20464;-56